sensor_id;sensor_type;location;lat;lon;timestamp;P1;durP1;ratioP1;P2;durP2;ratioP2
5841;SDS011;2947;52.276;9.946;2023-02-17T00:00:21;31.83;;;15.83;;
5841;SDS011;2947;52.276;9.946;2023-02-17T00:02:47;32.73;;;17.80;;
5841;SDS011;2947;52.276;9.946;2023-02-17T00:05:13;26.30;;;16.23;;
5841;SDS011;2947;52.276;9.946;2023-02-17T00:07:39;31.50;;;18.07;;
5841;SDS011;2947;52.276;9.946;2023-02-17T00:10:05;27.50;;;15.67;;
5841;SDS011;2947;52.276;9.946;2023-02-17T00:12:31;31.20;;;17.33;;
5841;SDS011;2947;52.276;9.946;2023-02-17T00:14:57;31.37;;;17.47;;
5841;SDS011;2947;52.276;9.946;2023-02-17T00:17:23;33.30;;;18.63;;
5841;SDS011;2947;52.276;9.946;2023-02-17T00:19:49;34.73;;;17.70;;
5841;SDS011;2947;52.276;9.946;2023-02-17T00:22:19;29.03;;;16.17;;
5841;SDS011;2947;52.276;9.946;2023-02-17T00:24:45;30.67;;;17.00;;
5841;SDS011;2947;52.276;9.946;2023-02-17T00:27:11;32.17;;;18.47;;
5841;SDS011;2947;52.276;9.946;2023-02-17T00:29:36;35.87;;;18.63;;
5841;SDS011;2947;52.276;9.946;2023-02-17T00:32:02;35.70;;;18.60;;
5841;SDS011;2947;52.276;9.946;2023-02-17T00:34:28;38.43;;;17.87;;
5841;SDS011;2947;52.276;9.946;2023-02-17T00:36:54;35.60;;;19.50;;
5841;SDS011;2947;52.276;9.946;2023-02-17T00:39:19;37.13;;;17.80;;
5841;SDS011;2947;52.276;9.946;2023-02-17T00:41:45;32.20;;;17.53;;
5841;SDS011;2947;52.276;9.946;2023-02-17T00:44:15;33.50;;;18.20;;
5841;SDS011;2947;52.276;9.946;2023-02-17T00:46:43;36.97;;;18.73;;
5841;SDS011;2947;52.276;9.946;2023-02-17T00:49:17;34.20;;;17.57;;
5841;SDS011;2947;52.276;9.946;2023-02-17T00:51:46;34.33;;;19.33;;
5841;SDS011;2947;52.276;9.946;2023-02-17T00:54:12;29.63;;;18.20;;
5841;SDS011;2947;52.276;9.946;2023-02-17T00:56:40;44.63;;;19.03;;
5841;SDS011;2947;52.276;9.946;2023-02-17T00:59:06;32.80;;;18.20;;
5841;SDS011;2947;52.276;9.946;2023-02-17T01:01:32;33.13;;;18.63;;
5841;SDS011;2947;52.276;9.946;2023-02-17T01:03:59;28.97;;;16.97;;
5841;SDS011;2947;52.276;9.946;2023-02-17T01:06:26;33.93;;;18.23;;
5841;SDS011;2947;52.276;9.946;2023-02-17T01:08:55;30.50;;;16.37;;
5841;SDS011;2947;52.276;9.946;2023-02-17T01:11:27;30.00;;;17.27;;
5841;SDS011;2947;52.276;9.946;2023-02-17T01:13:56;28.47;;;16.97;;
5841;SDS011;2947;52.276;9.946;2023-02-17T01:16:24;31.20;;;18.10;;
5841;SDS011;2947;52.276;9.946;2023-02-17T01:18:53;31.53;;;17.83;;
5841;SDS011;2947;52.276;9.946;2023-02-17T01:21:22;31.03;;;15.80;;
5841;SDS011;2947;52.276;9.946;2023-02-17T01:23:52;27.20;;;16.27;;
5841;SDS011;2947;52.276;9.946;2023-02-17T01:26:21;29.73;;;18.10;;
5841;SDS011;2947;52.276;9.946;2023-02-17T01:28:50;26.00;;;16.23;;
5841;SDS011;2947;52.276;9.946;2023-02-17T01:31:17;30.80;;;16.73;;
5841;SDS011;2947;52.276;9.946;2023-02-17T01:33:44;32.40;;;17.03;;
5841;SDS011;2947;52.276;9.946;2023-02-17T01:36:11;30.90;;;16.80;;
5841;SDS011;2947;52.276;9.946;2023-02-17T01:38:39;28.60;;;16.07;;
5841;SDS011;2947;52.276;9.946;2023-02-17T01:41:05;25.93;;;15.10;;
5841;SDS011;2947;52.276;9.946;2023-02-17T01:43:33;28.77;;;16.00;;
5841;SDS011;2947;52.276;9.946;2023-02-17T01:46:01;24.80;;;14.67;;
5841;SDS011;2947;52.276;9.946;2023-02-17T01:48:31;25.37;;;15.60;;
5841;SDS011;2947;52.276;9.946;2023-02-17T01:51:13;35.80;;;16.33;;
5841;SDS011;2947;52.276;9.946;2023-02-17T01:53:47;24.60;;;14.40;;
5841;SDS011;2947;52.276;9.946;2023-02-17T01:56:28;25.97;;;16.07;;
5841;SDS011;2947;52.276;9.946;2023-02-17T01:58:56;26.27;;;14.80;;
5841;SDS011;2947;52.276;9.946;2023-02-17T02:01:32;23.57;;;15.40;;
5841;SDS011;2947;52.276;9.946;2023-02-17T02:03:59;25.40;;;15.70;;
5841;SDS011;2947;52.276;9.946;2023-02-17T02:06:29;25.30;;;15.17;;
5841;SDS011;2947;52.276;9.946;2023-02-17T02:11:27;24.20;;;15.03;;
5841;SDS011;2947;52.276;9.946;2023-02-17T02:13:53;26.67;;;13.97;;
5841;SDS011;2947;52.276;9.946;2023-02-17T02:16:25;25.30;;;15.03;;
5841;SDS011;2947;52.276;9.946;2023-02-17T02:19:33;25.30;;;14.97;;
5841;SDS011;2947;52.276;9.946;2023-02-17T02:22:31;25.00;;;15.10;;
5841;SDS011;2947;52.276;9.946;2023-02-17T02:37:47;21.90;;;14.77;;
5841;SDS011;2947;52.276;9.946;2023-02-17T02:40:34;26.30;;;16.07;;
5841;SDS011;2947;52.276;9.946;2023-02-17T02:43:05;26.13;;;15.40;;
5841;SDS011;2947;52.276;9.946;2023-02-17T02:45:30;23.50;;;14.77;;
5841;SDS011;2947;52.276;9.946;2023-02-17T02:47:56;24.57;;;14.83;;
5841;SDS011;2947;52.276;9.946;2023-02-17T02:50:34;21.70;;;14.70;;
5841;SDS011;2947;52.276;9.946;2023-02-17T02:53:13;22.67;;;14.67;;
5841;SDS011;2947;52.276;9.946;2023-02-17T02:55:52;23.30;;;14.43;;
5841;SDS011;2947;52.276;9.946;2023-02-17T02:58:46;23.83;;;14.20;;
5841;SDS011;2947;52.276;9.946;2023-02-17T03:01:42;28.93;;;15.80;;
5841;SDS011;2947;52.276;9.946;2023-02-17T03:04:30;23.17;;;14.53;;
5841;SDS011;2947;52.276;9.946;2023-02-17T03:07:17;27.80;;;15.20;;
5841;SDS011;2947;52.276;9.946;2023-02-17T03:09:52;23.80;;;13.93;;
5841;SDS011;2947;52.276;9.946;2023-02-17T03:12:20;24.60;;;13.87;;
5841;SDS011;2947;52.276;9.946;2023-02-17T03:14:48;22.90;;;13.80;;
5841;SDS011;2947;52.276;9.946;2023-02-17T03:17:18;24.00;;;15.20;;
5841;SDS011;2947;52.276;9.946;2023-02-17T03:19:43;23.53;;;14.00;;
5841;SDS011;2947;52.276;9.946;2023-02-17T03:22:21;25.00;;;15.10;;
5841;SDS011;2947;52.276;9.946;2023-02-17T03:24:50;22.73;;;14.30;;
5841;SDS011;2947;52.276;9.946;2023-02-17T03:27:16;23.33;;;14.10;;
5841;SDS011;2947;52.276;9.946;2023-02-17T03:29:42;23.07;;;14.93;;
5841;SDS011;2947;52.276;9.946;2023-02-17T03:32:07;25.30;;;14.63;;
5841;SDS011;2947;52.276;9.946;2023-02-17T03:34:33;19.90;;;13.40;;
5841;SDS011;2947;52.276;9.946;2023-02-17T03:36:59;20.47;;;13.53;;
5841;SDS011;2947;52.276;9.946;2023-02-17T03:39:25;21.53;;;13.27;;
5841;SDS011;2947;52.276;9.946;2023-02-17T03:41:51;19.13;;;12.40;;
5841;SDS011;2947;52.276;9.946;2023-02-17T03:44:17;19.90;;;11.90;;
5841;SDS011;2947;52.276;9.946;2023-02-17T03:46:44;18.70;;;12.23;;
5841;SDS011;2947;52.276;9.946;2023-02-17T03:49:10;19.00;;;13.00;;
5841;SDS011;2947;52.276;9.946;2023-02-17T03:51:37;18.80;;;12.00;;
5841;SDS011;2947;52.276;9.946;2023-02-17T03:54:03;17.60;;;11.50;;
5841;SDS011;2947;52.276;9.946;2023-02-17T03:56:29;19.20;;;10.80;;
5841;SDS011;2947;52.276;9.946;2023-02-17T03:58:55;19.30;;;11.40;;
5841;SDS011;2947;52.276;9.946;2023-02-17T04:01:21;17.90;;;11.40;;
5841;SDS011;2947;52.276;9.946;2023-02-17T04:03:47;17.60;;;11.60;;
5841;SDS011;2947;52.276;9.946;2023-02-17T04:06:13;18.63;;;12.30;;
5841;SDS011;2947;52.276;9.946;2023-02-17T04:08:39;17.57;;;11.10;;
5841;SDS011;2947;52.276;9.946;2023-02-17T04:11:05;14.77;;;11.00;;
5841;SDS011;2947;52.276;9.946;2023-02-17T04:13:34;17.17;;;10.63;;
5841;SDS011;2947;52.276;9.946;2023-02-17T04:16:01;15.53;;;10.60;;
5841;SDS011;2947;52.276;9.946;2023-02-17T04:18:28;15.80;;;10.57;;
5841;SDS011;2947;52.276;9.946;2023-02-17T04:20:55;17.33;;;11.60;;
5841;SDS011;2947;52.276;9.946;2023-02-17T04:23:21;16.77;;;11.40;;
5841;SDS011;2947;52.276;9.946;2023-02-17T04:25:46;16.03;;;9.83;;
5841;SDS011;2947;52.276;9.946;2023-02-17T04:28:13;18.87;;;10.93;;
5841;SDS011;2947;52.276;9.946;2023-02-17T04:30:41;16.67;;;11.30;;
5841;SDS011;2947;52.276;9.946;2023-02-17T04:33:08;15.70;;;10.10;;
5841;SDS011;2947;52.276;9.946;2023-02-17T04:35:34;17.17;;;11.50;;
5841;SDS011;2947;52.276;9.946;2023-02-17T04:37:59;23.63;;;11.10;;
5841;SDS011;2947;52.276;9.946;2023-02-17T04:40:25;17.07;;;11.60;;
5841;SDS011;2947;52.276;9.946;2023-02-17T04:42:51;17.00;;;11.33;;
5841;SDS011;2947;52.276;9.946;2023-02-17T04:45:16;16.33;;;11.80;;
5841;SDS011;2947;52.276;9.946;2023-02-17T04:47:42;16.27;;;12.07;;
5841;SDS011;2947;52.276;9.946;2023-02-17T04:50:08;15.93;;;10.93;;
5841;SDS011;2947;52.276;9.946;2023-02-17T04:52:35;18.17;;;10.60;;
5841;SDS011;2947;52.276;9.946;2023-02-17T04:55:01;19.00;;;11.90;;
5841;SDS011;2947;52.276;9.946;2023-02-17T04:57:28;17.47;;;12.40;;
5841;SDS011;2947;52.276;9.946;2023-02-17T04:59:53;17.47;;;12.00;;
5841;SDS011;2947;52.276;9.946;2023-02-17T05:02:19;24.73;;;12.80;;
5841;SDS011;2947;52.276;9.946;2023-02-17T05:04:45;22.73;;;11.50;;
5841;SDS011;2947;52.276;9.946;2023-02-17T05:07:10;17.53;;;10.97;;
5841;SDS011;2947;52.276;9.946;2023-02-17T05:09:36;18.23;;;11.13;;
5841;SDS011;2947;52.276;9.946;2023-02-17T05:12:02;19.07;;;12.43;;
5841;SDS011;2947;52.276;9.946;2023-02-17T05:14:30;17.00;;;12.03;;
5841;SDS011;2947;52.276;9.946;2023-02-17T05:16:55;16.70;;;11.30;;
5841;SDS011;2947;52.276;9.946;2023-02-17T05:19:21;16.73;;;12.00;;
5841;SDS011;2947;52.276;9.946;2023-02-17T05:21:47;18.27;;;11.50;;
5841;SDS011;2947;52.276;9.946;2023-02-17T05:24:13;16.10;;;10.90;;
5841;SDS011;2947;52.276;9.946;2023-02-17T05:26:38;19.50;;;12.40;;
5841;SDS011;2947;52.276;9.946;2023-02-17T05:29:04;18.87;;;11.60;;
5841;SDS011;2947;52.276;9.946;2023-02-17T05:31:30;18.13;;;11.30;;
5841;SDS011;2947;52.276;9.946;2023-02-17T05:33:55;16.70;;;11.60;;
5841;SDS011;2947;52.276;9.946;2023-02-17T05:36:21;21.70;;;12.70;;
5841;SDS011;2947;52.276;9.946;2023-02-17T05:38:47;16.10;;;10.33;;
5841;SDS011;2947;52.276;9.946;2023-02-17T05:41:17;17.17;;;10.33;;
5841;SDS011;2947;52.276;9.946;2023-02-17T05:43:43;15.93;;;10.80;;
5841;SDS011;2947;52.276;9.946;2023-02-17T05:46:10;15.90;;;10.57;;
5841;SDS011;2947;52.276;9.946;2023-02-17T05:48:36;16.77;;;10.80;;
5841;SDS011;2947;52.276;9.946;2023-02-17T05:51:02;15.50;;;11.30;;
5841;SDS011;2947;52.276;9.946;2023-02-17T05:53:28;16.40;;;11.50;;
5841;SDS011;2947;52.276;9.946;2023-02-17T05:55:54;19.67;;;12.57;;
5841;SDS011;2947;52.276;9.946;2023-02-17T05:58:20;16.60;;;10.80;;
5841;SDS011;2947;52.276;9.946;2023-02-17T06:00:46;17.07;;;11.40;;
5841;SDS011;2947;52.276;9.946;2023-02-17T06:03:12;18.50;;;11.63;;
5841;SDS011;2947;52.276;9.946;2023-02-17T06:05:38;18.23;;;11.80;;
5841;SDS011;2947;52.276;9.946;2023-02-17T06:08:04;25.60;;;12.30;;
5841;SDS011;2947;52.276;9.946;2023-02-17T06:10:30;22.17;;;13.30;;
5841;SDS011;2947;52.276;9.946;2023-02-17T06:12:55;22.60;;;13.70;;
5841;SDS011;2947;52.276;9.946;2023-02-17T06:15:21;19.47;;;12.90;;
5841;SDS011;2947;52.276;9.946;2023-02-17T06:17:47;22.53;;;14.20;;
5841;SDS011;2947;52.276;9.946;2023-02-17T06:20:13;20.70;;;13.60;;
5841;SDS011;2947;52.276;9.946;2023-02-17T06:22:39;23.00;;;14.70;;
5841;SDS011;2947;52.276;9.946;2023-02-17T06:25:06;24.50;;;14.40;;
5841;SDS011;2947;52.276;9.946;2023-02-17T06:27:32;19.63;;;13.33;;
5841;SDS011;2947;52.276;9.946;2023-02-17T06:29:58;21.50;;;14.90;;
5841;SDS011;2947;52.276;9.946;2023-02-17T06:32:24;23.23;;;13.90;;
5841;SDS011;2947;52.276;9.946;2023-02-17T06:34:49;24.63;;;13.97;;
5841;SDS011;2947;52.276;9.946;2023-02-17T06:37:15;28.97;;;15.43;;
5841;SDS011;2947;52.276;9.946;2023-02-17T06:39:41;24.60;;;15.70;;
5841;SDS011;2947;52.276;9.946;2023-02-17T06:42:06;26.23;;;15.23;;
5841;SDS011;2947;52.276;9.946;2023-02-17T06:44:32;25.73;;;16.00;;
5841;SDS011;2947;52.276;9.946;2023-02-17T06:46:58;26.30;;;15.53;;
5841;SDS011;2947;52.276;9.946;2023-02-17T06:49:24;26.23;;;17.07;;
5841;SDS011;2947;52.276;9.946;2023-02-17T06:51:50;26.77;;;16.27;;
5841;SDS011;2947;52.276;9.946;2023-02-17T06:54:16;25.03;;;15.90;;
5841;SDS011;2947;52.276;9.946;2023-02-17T06:56:42;22.13;;;14.30;;
5841;SDS011;2947;52.276;9.946;2023-02-17T06:59:09;24.47;;;14.43;;
5841;SDS011;2947;52.276;9.946;2023-02-17T07:01:34;24.73;;;16.67;;
5841;SDS011;2947;52.276;9.946;2023-02-17T07:04:00;21.37;;;14.67;;
5841;SDS011;2947;52.276;9.946;2023-02-17T07:06:26;23.00;;;15.47;;
5841;SDS011;2947;52.276;9.946;2023-02-17T07:08:52;30.60;;;14.00;;
5841;SDS011;2947;52.276;9.946;2023-02-17T07:11:18;22.23;;;14.97;;
5841;SDS011;2947;52.276;9.946;2023-02-17T07:13:44;28.27;;;16.40;;
5841;SDS011;2947;52.276;9.946;2023-02-17T07:16:11;23.90;;;15.53;;
5841;SDS011;2947;52.276;9.946;2023-02-17T07:18:38;20.07;;;14.70;;
5841;SDS011;2947;52.276;9.946;2023-02-17T07:21:06;22.63;;;15.23;;
5841;SDS011;2947;52.276;9.946;2023-02-17T07:23:33;23.80;;;16.07;;
5841;SDS011;2947;52.276;9.946;2023-02-17T07:26:00;21.70;;;14.63;;
5841;SDS011;2947;52.276;9.946;2023-02-17T07:28:27;25.00;;;16.20;;
5841;SDS011;2947;52.276;9.946;2023-02-17T07:30:53;26.47;;;16.43;;
5841;SDS011;2947;52.276;9.946;2023-02-17T07:33:18;25.80;;;15.60;;
5841;SDS011;2947;52.276;9.946;2023-02-17T07:35:44;23.53;;;15.67;;
5841;SDS011;2947;52.276;9.946;2023-02-17T07:38:10;26.37;;;16.90;;
5841;SDS011;2947;52.276;9.946;2023-02-17T07:40:36;26.97;;;16.73;;
5841;SDS011;2947;52.276;9.946;2023-02-17T07:43:03;24.43;;;15.70;;
5841;SDS011;2947;52.276;9.946;2023-02-17T07:45:28;22.60;;;15.70;;
5841;SDS011;2947;52.276;9.946;2023-02-17T07:47:54;23.10;;;13.80;;
5841;SDS011;2947;52.276;9.946;2023-02-17T07:50:20;22.67;;;15.27;;
5841;SDS011;2947;52.276;9.946;2023-02-17T07:52:46;19.20;;;12.47;;
5841;SDS011;2947;52.276;9.946;2023-02-17T07:55:11;22.87;;;14.57;;
5841;SDS011;2947;52.276;9.946;2023-02-17T07:57:37;20.47;;;12.80;;
5841;SDS011;2947;52.276;9.946;2023-02-17T08:00:03;18.93;;;12.80;;
5841;SDS011;2947;52.276;9.946;2023-02-17T08:02:30;20.50;;;12.90;;
5841;SDS011;2947;52.276;9.946;2023-02-17T08:04:56;18.47;;;12.60;;
5841;SDS011;2947;52.276;9.946;2023-02-17T08:07:21;19.87;;;12.10;;
5841;SDS011;2947;52.276;9.946;2023-02-17T08:09:47;21.00;;;12.17;;
5841;SDS011;2947;52.276;9.946;2023-02-17T08:12:31;16.00;;;10.00;;
5841;SDS011;2947;52.276;9.946;2023-02-17T08:15:15;18.13;;;11.17;;
5841;SDS011;2947;52.276;9.946;2023-02-17T08:17:41;17.53;;;11.30;;
5841;SDS011;2947;52.276;9.946;2023-02-17T08:20:08;15.83;;;10.80;;
5841;SDS011;2947;52.276;9.946;2023-02-17T08:22:37;18.00;;;10.77;;
5841;SDS011;2947;52.276;9.946;2023-02-17T08:25:03;16.23;;;10.33;;
5841;SDS011;2947;52.276;9.946;2023-02-17T08:27:30;15.50;;;10.83;;
5841;SDS011;2947;52.276;9.946;2023-02-17T08:29:55;15.33;;;10.10;;
5841;SDS011;2947;52.276;9.946;2023-02-17T08:32:21;15.13;;;9.40;;
5841;SDS011;2947;52.276;9.946;2023-02-17T08:34:48;17.30;;;11.37;;
5841;SDS011;2947;52.276;9.946;2023-02-17T08:37:13;14.93;;;10.53;;
5841;SDS011;2947;52.276;9.946;2023-02-17T08:39:39;17.43;;;10.83;;
5841;SDS011;2947;52.276;9.946;2023-02-17T08:42:05;14.57;;;9.27;;
5841;SDS011;2947;52.276;9.946;2023-02-17T08:44:32;15.87;;;10.77;;
5841;SDS011;2947;52.276;9.946;2023-02-17T08:47:00;16.37;;;10.90;;
5841;SDS011;2947;52.276;9.946;2023-02-17T08:49:29;16.20;;;11.80;;
5841;SDS011;2947;52.276;9.946;2023-02-17T08:51:56;17.80;;;10.10;;
5841;SDS011;2947;52.276;9.946;2023-02-17T08:54:23;17.77;;;10.20;;
5841;SDS011;2947;52.276;9.946;2023-02-17T08:56:48;17.67;;;10.50;;
5841;SDS011;2947;52.276;9.946;2023-02-17T08:59:14;13.57;;;8.97;;
5841;SDS011;2947;52.276;9.946;2023-02-17T09:01:41;17.30;;;9.93;;
5841;SDS011;2947;52.276;9.946;2023-02-17T09:04:07;17.90;;;10.30;;
5841;SDS011;2947;52.276;9.946;2023-02-17T09:06:39;14.10;;;9.23;;
5841;SDS011;2947;52.276;9.946;2023-02-17T09:09:12;13.07;;;9.67;;
5841;SDS011;2947;52.276;9.946;2023-02-17T09:11:40;14.33;;;9.10;;
5841;SDS011;2947;52.276;9.946;2023-02-17T09:14:07;14.20;;;9.47;;
5841;SDS011;2947;52.276;9.946;2023-02-17T09:16:33;16.90;;;9.10;;
5841;SDS011;2947;52.276;9.946;2023-02-17T09:18:59;15.03;;;8.90;;
5841;SDS011;2947;52.276;9.946;2023-02-17T09:21:25;15.87;;;9.23;;
5841;SDS011;2947;52.276;9.946;2023-02-17T09:23:50;13.70;;;9.10;;
5841;SDS011;2947;52.276;9.946;2023-02-17T09:26:17;12.03;;;8.13;;
5841;SDS011;2947;52.276;9.946;2023-02-17T09:28:45;14.00;;;8.17;;
5841;SDS011;2947;52.276;9.946;2023-02-17T09:31:18;11.83;;;8.80;;
5841;SDS011;2947;52.276;9.946;2023-02-17T09:33:47;12.47;;;7.97;;
5841;SDS011;2947;52.276;9.946;2023-02-17T09:36:14;16.40;;;8.77;;
5841;SDS011;2947;52.276;9.946;2023-02-17T09:38:43;11.67;;;7.87;;
5841;SDS011;2947;52.276;9.946;2023-02-17T09:44:00;12.90;;;7.50;;
5841;SDS011;2947;52.276;9.946;2023-02-17T09:46:27;9.80;;;7.20;;
5841;SDS011;2947;52.276;9.946;2023-02-17T09:49:01;11.57;;;8.10;;
5841;SDS011;2947;52.276;9.946;2023-02-17T09:51:36;11.30;;;6.70;;
5841;SDS011;2947;52.276;9.946;2023-02-17T09:54:14;12.73;;;7.17;;
5841;SDS011;2947;52.276;9.946;2023-02-17T09:56:46;11.60;;;7.33;;
5841;SDS011;2947;52.276;9.946;2023-02-17T09:59:18;9.80;;;6.93;;
5841;SDS011;2947;52.276;9.946;2023-02-17T10:02:07;9.90;;;6.70;;
5841;SDS011;2947;52.276;9.946;2023-02-17T10:04:43;8.27;;;6.33;;
5841;SDS011;2947;52.276;9.946;2023-02-17T10:07:13;10.10;;;6.63;;
5841;SDS011;2947;52.276;9.946;2023-02-17T10:09:51;13.27;;;7.90;;
5841;SDS011;2947;52.276;9.946;2023-02-17T10:12:24;11.43;;;7.43;;
5841;SDS011;2947;52.276;9.946;2023-02-17T10:14:55;8.93;;;7.03;;
5841;SDS011;2947;52.276;9.946;2023-02-17T10:17:30;10.77;;;7.67;;
5841;SDS011;2947;52.276;9.946;2023-02-17T10:20:08;12.27;;;8.37;;
5841;SDS011;2947;52.276;9.946;2023-02-17T10:22:38;13.90;;;8.10;;
5841;SDS011;2947;52.276;9.946;2023-02-17T10:25:32;10.40;;;7.50;;
5841;SDS011;2947;52.276;9.946;2023-02-17T10:28:58;12.60;;;8.70;;
5841;SDS011;2947;52.276;9.946;2023-02-17T10:31:45;13.13;;;8.20;;
5841;SDS011;2947;52.276;9.946;2023-02-17T10:34:27;16.33;;;8.53;;
5841;SDS011;2947;52.276;9.946;2023-02-17T10:37:47;18.13;;;10.43;;
5841;SDS011;2947;52.276;9.946;2023-02-17T10:39:56;19.90;;;10.40;;
5841;SDS011;2947;52.276;9.946;2023-02-17T10:42:29;18.70;;;10.40;;
5841;SDS011;2947;52.276;9.946;2023-02-17T10:44:59;15.93;;;9.60;;
5841;SDS011;2947;52.276;9.946;2023-02-17T10:47:40;19.60;;;11.00;;
5841;SDS011;2947;52.276;9.946;2023-02-17T10:50:19;18.07;;;11.03;;
5841;SDS011;2947;52.276;9.946;2023-02-17T10:52:47;16.60;;;11.10;;
5841;SDS011;2947;52.276;9.946;2023-02-17T10:58:03;18.47;;;11.50;;
5841;SDS011;2947;52.276;9.946;2023-02-17T11:00:58;18.30;;;11.27;;
5841;SDS011;2947;52.276;9.946;2023-02-17T11:03:27;17.83;;;10.93;;
5841;SDS011;2947;52.276;9.946;2023-02-17T11:08:24;15.00;;;11.00;;
5841;SDS011;2947;52.276;9.946;2023-02-17T11:11:14;13.80;;;9.23;;
5841;SDS011;2947;52.276;9.946;2023-02-17T11:16:42;13.17;;;8.67;;
5841;SDS011;2947;52.276;9.946;2023-02-17T11:19:20;14.40;;;10.37;;
5841;SDS011;2947;52.276;9.946;2023-02-17T11:21:57;17.03;;;11.07;;
5841;SDS011;2947;52.276;9.946;2023-02-17T11:24:24;15.87;;;9.90;;
5841;SDS011;2947;52.276;9.946;2023-02-17T11:26:59;15.60;;;10.33;;
5841;SDS011;2947;52.276;9.946;2023-02-17T11:29:28;15.03;;;9.37;;
5841;SDS011;2947;52.276;9.946;2023-02-17T11:31:55;14.60;;;8.30;;
5841;SDS011;2947;52.276;9.946;2023-02-17T11:34:55;15.40;;;10.40;;
5841;SDS011;2947;52.276;9.946;2023-02-17T11:37:22;13.83;;;10.30;;
5841;SDS011;2947;52.276;9.946;2023-02-17T11:39:49;14.70;;;10.80;;
5841;SDS011;2947;52.276;9.946;2023-02-17T11:42:23;14.87;;;9.90;;
5841;SDS011;2947;52.276;9.946;2023-02-17T11:44:57;17.03;;;9.60;;
5841;SDS011;2947;52.276;9.946;2023-02-17T11:47:37;14.10;;;9.70;;
5841;SDS011;2947;52.276;9.946;2023-02-17T11:50:30;15.07;;;9.87;;
5841;SDS011;2947;52.276;9.946;2023-02-17T11:53:22;19.00;;;9.90;;
5841;SDS011;2947;52.276;9.946;2023-02-17T11:56:08;12.83;;;9.27;;
5841;SDS011;2947;52.276;9.946;2023-02-17T12:12:28;19.47;;;11.73;;
5841;SDS011;2947;52.276;9.946;2023-02-17T12:16:08;17.07;;;11.13;;
5841;SDS011;2947;52.276;9.946;2023-02-17T12:18:48;13.90;;;9.40;;
5841;SDS011;2947;52.276;9.946;2023-02-17T12:24:57;17.07;;;11.20;;
5841;SDS011;2947;52.276;9.946;2023-02-17T12:31:07;15.00;;;9.90;;
5841;SDS011;2947;52.276;9.946;2023-02-17T12:36:54;18.23;;;12.90;;
5841;SDS011;2947;52.276;9.946;2023-02-17T12:39:23;16.30;;;12.27;;
5841;SDS011;2947;52.276;9.946;2023-02-17T12:42:08;20.03;;;12.43;;
5841;SDS011;2947;52.276;9.946;2023-02-17T12:44:56;15.75;;;11.70;;
5841;SDS011;2947;52.276;9.946;2023-02-17T12:47:40;16.02;;;12.20;;
5841;SDS011;2947;52.276;9.946;2023-02-17T12:50:34;17.63;;;12.83;;
5841;SDS011;2947;52.276;9.946;2023-02-17T12:53:33;17.00;;;11.97;;
5841;SDS011;2947;52.276;9.946;2023-02-17T12:58:50;18.30;;;12.63;;
5841;SDS011;2947;52.276;9.946;2023-02-17T13:01:20;16.53;;;11.83;;
5841;SDS011;2947;52.276;9.946;2023-02-17T13:03:53;18.50;;;12.27;;
5841;SDS011;2947;52.276;9.946;2023-02-17T13:06:24;16.87;;;13.17;;
5841;SDS011;2947;52.276;9.946;2023-02-17T13:12:06;15.90;;;12.37;;
5841;SDS011;2947;52.276;9.946;2023-02-17T13:20:36;14.03;;;11.30;;
5841;SDS011;2947;52.276;9.946;2023-02-17T13:26:04;14.32;;;10.93;;
5841;SDS011;2947;52.276;9.946;2023-02-17T13:28:41;13.13;;;10.47;;
5841;SDS011;2947;52.276;9.946;2023-02-17T13:31:08;12.23;;;9.90;;
5841;SDS011;2947;52.276;9.946;2023-02-17T13:33:46;15.70;;;10.30;;
5841;SDS011;2947;52.276;9.946;2023-02-17T13:38:58;15.03;;;9.33;;
5841;SDS011;2947;52.276;9.946;2023-02-17T13:41:28;14.13;;;9.20;;
5841;SDS011;2947;52.276;9.946;2023-02-17T13:46:59;12.52;;;8.32;;
5841;SDS011;2947;52.276;9.946;2023-02-17T13:49:53;17.50;;;8.67;;
5841;SDS011;2947;52.276;9.946;2023-02-17T13:52:24;12.63;;;7.77;;
5841;SDS011;2947;52.276;9.946;2023-02-17T13:54:54;9.50;;;7.30;;
5841;SDS011;2947;52.276;9.946;2023-02-17T13:57:33;10.90;;;8.03;;
5841;SDS011;2947;52.276;9.946;2023-02-17T14:02:50;9.77;;;7.07;;
5841;SDS011;2947;52.276;9.946;2023-02-17T14:05:41;10.67;;;7.23;;
5841;SDS011;2947;52.276;9.946;2023-02-17T14:08:13;10.40;;;7.03;;
5841;SDS011;2947;52.276;9.946;2023-02-17T14:10:52;10.13;;;7.35;;
5841;SDS011;2947;52.276;9.946;2023-02-17T14:13:18;8.93;;;6.17;;
5841;SDS011;2947;52.276;9.946;2023-02-17T14:15:54;14.33;;;7.13;;
5841;SDS011;2947;52.276;9.946;2023-02-17T14:18:36;11.50;;;6.83;;
5841;SDS011;2947;52.276;9.946;2023-02-17T14:21:22;8.50;;;6.30;;
5841;SDS011;2947;52.276;9.946;2023-02-17T14:23:51;11.13;;;6.30;;
5841;SDS011;2947;52.276;9.946;2023-02-17T14:29:08;10.13;;;6.60;;
5841;SDS011;2947;52.276;9.946;2023-02-17T14:31:43;8.00;;;5.53;;
5841;SDS011;2947;52.276;9.946;2023-02-17T14:34:23;8.03;;;5.57;;
5841;SDS011;2947;52.276;9.946;2023-02-17T14:37:05;8.00;;;5.30;;
5841;SDS011;2947;52.276;9.946;2023-02-17T14:39:42;8.60;;;4.70;;
5841;SDS011;2947;52.276;9.946;2023-02-17T14:42:08;7.60;;;4.53;;
5841;SDS011;2947;52.276;9.946;2023-02-17T14:44:34;7.17;;;4.80;;
5841;SDS011;2947;52.276;9.946;2023-02-17T14:46:59;8.80;;;5.80;;
5841;SDS011;2947;52.276;9.946;2023-02-17T14:49:25;6.93;;;4.43;;
5841;SDS011;2947;52.276;9.946;2023-02-17T14:51:51;8.57;;;3.53;;
5841;SDS011;2947;52.276;9.946;2023-02-17T14:54:16;6.87;;;4.20;;
5841;SDS011;2947;52.276;9.946;2023-02-17T14:59:40;6.63;;;4.13;;
5841;SDS011;2947;52.276;9.946;2023-02-17T15:02:11;7.10;;;4.33;;
5841;SDS011;2947;52.276;9.946;2023-02-17T15:04:40;6.47;;;4.23;;
5841;SDS011;2947;52.276;9.946;2023-02-17T15:07:14;8.10;;;4.60;;
5841;SDS011;2947;52.276;9.946;2023-02-17T15:09:45;6.00;;;4.10;;
5841;SDS011;2947;52.276;9.946;2023-02-17T15:12:16;6.80;;;4.90;;
5841;SDS011;2947;52.276;9.946;2023-02-17T15:14:44;7.13;;;4.27;;
5841;SDS011;2947;52.276;9.946;2023-02-17T15:17:13;5.53;;;3.83;;
5841;SDS011;2947;52.276;9.946;2023-02-17T15:19:40;9.87;;;4.70;;
5841;SDS011;2947;52.276;9.946;2023-02-17T15:22:10;7.23;;;4.00;;
5841;SDS011;2947;52.276;9.946;2023-02-17T15:24:37;6.50;;;4.20;;
5841;SDS011;2947;52.276;9.946;2023-02-17T15:27:03;6.03;;;3.90;;
5841;SDS011;2947;52.276;9.946;2023-02-17T15:29:30;7.37;;;4.50;;
5841;SDS011;2947;52.276;9.946;2023-02-17T15:31:58;8.50;;;4.00;;
5841;SDS011;2947;52.276;9.946;2023-02-17T15:34:26;6.30;;;4.07;;
5841;SDS011;2947;52.276;9.946;2023-02-17T15:36:57;7.07;;;4.07;;
5841;SDS011;2947;52.276;9.946;2023-02-17T15:39:24;6.50;;;4.40;;
5841;SDS011;2947;52.276;9.946;2023-02-17T15:41:50;6.73;;;3.83;;
5841;SDS011;2947;52.276;9.946;2023-02-17T15:44:19;5.97;;;4.57;;
5841;SDS011;2947;52.276;9.946;2023-02-17T15:46:53;7.30;;;4.13;;
5841;SDS011;2947;52.276;9.946;2023-02-17T15:49:19;9.30;;;3.97;;
5841;SDS011;2947;52.276;9.946;2023-02-17T15:51:46;6.63;;;4.30;;
5841;SDS011;2947;52.276;9.946;2023-02-17T15:54:12;6.27;;;3.90;;
5841;SDS011;2947;52.276;9.946;2023-02-17T15:56:47;7.03;;;3.87;;
5841;SDS011;2947;52.276;9.946;2023-02-17T15:59:18;7.47;;;4.03;;
5841;SDS011;2947;52.276;9.946;2023-02-17T16:01:48;6.77;;;3.80;;
5841;SDS011;2947;52.276;9.946;2023-02-17T16:04:19;7.57;;;4.00;;
5841;SDS011;2947;52.276;9.946;2023-02-17T16:06:46;6.00;;;4.50;;
5841;SDS011;2947;52.276;9.946;2023-02-17T16:09:12;5.93;;;3.70;;
5841;SDS011;2947;52.276;9.946;2023-02-17T16:11:48;9.40;;;4.37;;
5841;SDS011;2947;52.276;9.946;2023-02-17T16:14:22;5.80;;;3.57;;
5841;SDS011;2947;52.276;9.946;2023-02-17T16:16:54;7.97;;;3.87;;
5841;SDS011;2947;52.276;9.946;2023-02-17T16:19:19;6.57;;;3.50;;
5841;SDS011;2947;52.276;9.946;2023-02-17T16:21:46;5.70;;;4.13;;
5841;SDS011;2947;52.276;9.946;2023-02-17T16:24:11;6.07;;;4.23;;
5841;SDS011;2947;52.276;9.946;2023-02-17T16:26:37;7.17;;;4.37;;
5841;SDS011;2947;52.276;9.946;2023-02-17T16:29:19;6.43;;;3.83;;
5841;SDS011;2947;52.276;9.946;2023-02-17T16:31:46;8.97;;;4.10;;
5841;SDS011;2947;52.276;9.946;2023-02-17T16:34:16;5.97;;;3.83;;